Time;durP1;ratioP1;P1;durP2;ratioP2;P2;SDS_P1;SDS_P2;PMS_P1;PMS_P2;Temp;Humidity;BMP_temperature;BMP_pressure;BME280_temperature;BME280_humidity;BME280_pressure;Samples;Min_cycle;Max_cycle;Signal;HPM_P1;HPM_P2
2021/04/26 00:00:26;;;;;;;;;;;;;;;10.42;63.54;100070.94;5100559;28;20083;-65
2021/04/26 00:02:52;;;;;;;;;;;;;;;10.40;63.80;100077.34;5102303;28;19947;-65
2021/04/26 00:05:17;;;;;;;;;;;;;;;10.50;63.14;100075.47;5101524;28;19915;-65
2021/04/26 00:07:43;;;;;;;;;;;;;;;10.38;64.04;100077.50;5103807;28;19978;-63
2021/04/26 00:10:08;;;;;;;;;;;;;;;10.43;63.68;100080.56;5106087;28;19923;-64
2021/04/26 00:12:34;;;;;;;;;;;;;;;10.35;64.39;100079.63;5104421;28;19934;-64
2021/04/26 00:14:59;;;;;;;;;;;;;;;10.45;63.49;100088.34;5103949;28;19920;-65
2021/04/26 00:17:25;;;;;;;;;;;;;;;10.66;62.81;100093.31;5104585;28;19920;-65
2021/04/26 00:19:50;;;;;;;;;;;;;;;10.62;63.02;100097.25;5103779;28;19987;-65
2021/04/26 00:22:15;;;;;;;;;;;;;;;10.45;63.59;100094.47;5105024;28;19919;-65
2021/04/26 00:24:41;;;;;;;;;;;;;;;10.41;63.66;100095.75;5104561;28;20016;-65
2021/04/26 00:27:07;;;;;;;;;;;;;;;10.53;63.69;100096.34;5103656;28;19920;-65
2021/04/26 00:29:32;;;;;;;;;;;;;;;10.48;63.72;100094.16;5105493;28;19951;-65
2021/04/26 00:31:57;;;;;;;;;;;;;;;10.36;64.21;100108.59;5103667;28;19919;-65
2021/04/26 00:34:22;;;;;;;;;;;;;;;10.35;64.52;100098.97;5105475;28;19946;-65
2021/04/26 00:36:48;;;;;;;;;;;;;;;10.35;63.89;100106.91;5104715;28;19908;-65
2021/04/26 00:39:13;;;;;;;;;;;;;;;10.27;64.30;100106.84;5105622;28;19943;-64
2021/04/26 00:41:38;;;;;;;;;;;;;;;10.21;64.29;100110.94;5108534;28;19912;-63
2021/04/26 00:44:04;;;;;;;;;;;;;;;10.19;64.24;100107.56;5120713;28;19916;-64
2021/04/26 00:46:29;;;;;;;;;;;;;;;9.98;64.76;100104.38;5114343;28;20210;-65
2021/04/26 00:48:54;;;;;;;;;;;;;;;9.92;65.39;100105.81;5110327;28;19916;-65
2021/04/26 00:51:20;;;;;;;;;;;;;;;9.95;65.14;100104.69;5105551;28;19912;-65
2021/04/26 00:53:45;;;;;;;;;;;;;;;10.00;65.14;100102.41;5105743;28;19959;-65
2021/04/26 00:56:10;;;;;;;;;;;;;;;10.07;64.21;100097.34;5104361;28;20137;-65
2021/04/26 00:58:36;;;;;;;;;;;;;;;9.95;65.00;100094.09;5103548;28;19982;-65
2021/04/26 01:01:01;;;;;;;;;;;;;;;9.91;64.82;100095.38;5103204;28;19993;-65
2021/04/26 01:03:26;;;;;;;;;;;;;;;9.89;64.71;100102.63;5104168;28;19938;-65
2021/04/26 01:05:51;;;;;;;;;;;;;;;9.93;65.83;100096.88;5103298;28;19965;-65
2021/04/26 01:08:17;;;;;;;;;;;;;;;10.06;65.85;100096.53;5104660;28;19915;-65
2021/04/26 01:10:42;;;;;;;;;;;;;;;10.01;66.03;100105.88;5103868;28;19908;-63
2021/04/26 01:13:26;;;;;;;;;;;;;;;10.07;66.04;100107.94;5103929;28;19931;-64
2021/04/26 01:16:12;;;;;;;;;;;;;;;10.05;64.93;100096.69;5103810;28;19912;-64
2021/04/26 01:18:53;;;;;;;;;;;;;;;9.95;64.04;100102.03;5103456;28;19923;-65
2021/04/26 01:21:18;;;;;;;;;;;;;;;9.86;63.44;100098.47;5104517;28;20265;-65
2021/04/26 01:24:01;;;;;;;;;;;;;;;9.80;62.79;100093.78;5104011;28;19916;-65
2021/04/26 01:26:41;;;;;;;;;;;;;;;9.68;63.81;100094.97;5103502;28;19974;-65
2021/04/26 01:29:13;;;;;;;;;;;;;;;9.64;64.04;100104.16;5104321;28;19916;-65
2021/04/26 01:31:44;;;;;;;;;;;;;;;9.59;64.76;100099.31;5102744;28;20205;-65
2021/04/26 01:34:09;;;;;;;;;;;;;;;9.71;64.13;100110.53;5104697;28;19916;-65
2021/04/26 01:36:35;;;;;;;;;;;;;;;9.75;64.29;100097.84;5104100;28;19908;-65
2021/04/26 01:39:01;;;;;;;;;;;;;;;9.70;64.23;100097.44;5103142;28;19923;-65
2021/04/26 01:41:28;;;;;;;;;;;;;;;9.73;64.17;100089.22;5103884;28;20153;-64
2021/04/26 01:43:55;;;;;;;;;;;;;;;9.70;64.48;100092.16;5102860;28;19927;-64
2021/04/26 01:46:21;;;;;;;;;;;;;;;9.78;64.65;100089.63;5103994;28;20193;-64
2021/04/26 01:48:50;;;;;;;;;;;;;;;9.82;63.31;100077.75;5102867;28;19916;-65
2021/04/26 01:51:16;;;;;;;;;;;;;;;9.79;62.97;100078.88;5102986;28;19974;-65
2021/04/26 01:53:42;;;;;;;;;;;;;;;9.81;63.08;100084.03;5103097;28;19915;-65
2021/04/26 01:56:08;;;;;;;;;;;;;;;9.56;63.51;100085.56;5102123;28;19912;-65
2021/04/26 01:58:37;;;;;;;;;;;;;;;9.58;64.59;100087.09;5103060;28;20192;-65
2021/04/26 02:01:02;;;;;;;;;;;;;;;9.62;63.08;100084.13;5101921;28;19912;-65
2021/04/26 02:03:27;;;;;;;;;;;;;;;9.56;63.18;100085.56;5104140;28;19916;-65
2021/04/26 02:05:54;;;;;;;;;;;;;;;9.49;62.55;100084.47;5103934;28;19919;-65
2021/04/26 02:08:20;;;;;;;;;;;;;;;9.36;63.59;100083.97;5101942;28;20217;-65
2021/04/26 02:10:45;;;;;;;;;;;;;;;9.22;64.16;100094.03;5105065;28;19920;-65
2021/04/26 02:13:14;;;;;;;;;;;;;;;9.17;64.67;100093.63;5103209;28;19923;-64
2021/04/26 02:15:40;;;;;;;;;;;;;;;9.22;64.65;100098.47;5105300;28;19912;-64
2021/04/26 02:18:05;;;;;;;;;;;;;;;9.20;63.32;100105.72;5101706;28;19943;-65
2021/04/26 02:20:30;;;;;;;;;;;;;;;9.14;64.60;100108.94;5102929;28;19912;-65
2021/04/26 02:22:56;;;;;;;;;;;;;;;9.12;64.64;100114.38;5102296;28;20182;-65
2021/04/26 02:25:21;;;;;;;;;;;;;;;9.00;65.05;100112.88;5101482;28;20109;-65
2021/04/26 02:27:47;;;;;;;;;;;;;;;9.00;65.08;100112.88;5102582;28;19924;-65
2021/04/26 02:30:13;;;;;;;;;;;;;;;9.25;63.82;100100.84;5102176;28;19954;-65
2021/04/26 02:32:38;;;;;;;;;;;;;;;9.01;63.05;100089.94;5102229;28;19907;-65
2021/04/26 02:35:05;;;;;;;;;;;;;;;8.91;63.83;100097.88;5102341;28;20144;-65
2021/04/26 02:37:50;;;;;;;;;;;;;;;8.92;63.48;100091.63;5101289;28;19926;-65
2021/04/26 02:40:16;;;;;;;;;;;;;;;8.86;63.99;100094.84;5103048;28;19912;-65
2021/04/26 02:42:43;;;;;;;;;;;;;;;8.90;63.96;100094.41;5102194;28;19915;-63
2021/04/26 02:45:10;;;;;;;;;;;;;;;8.84;65.21;100096.78;5101248;28;19915;-64
2021/04/26 02:47:38;;;;;;;;;;;;;;;8.90;65.85;100093.56;5105620;28;19912;-65
2021/04/26 02:50:04;;;;;;;;;;;;;;;9.05;64.87;100099.22;5102209;28;19920;-65
2021/04/26 02:52:30;;;;;;;;;;;;;;;8.99;65.48;100097.16;5102522;28;19912;-65
2021/04/26 02:54:56;;;;;;;;;;;;;;;8.87;65.81;100092.06;5100697;28;19957;-65
2021/04/26 02:57:21;;;;;;;;;;;;;;;8.92;65.97;100100.38;5105210;28;19911;-65
2021/04/26 02:59:47;;;;;;;;;;;;;;;8.92;66.09;100099.53;5101839;28;19968;-65
2021/04/26 03:02:12;;;;;;;;;;;;;;;8.84;66.33;100096.78;5102031;28;20267;-65
2021/04/26 03:04:38;;;;;;;;;;;;;;;8.93;66.36;100102.03;5100501;28;20140;-65
2021/04/26 03:07:05;;;;;;;;;;;;;;;8.91;66.45;100104.00;5101723;28;19920;-65
2021/04/26 03:09:30;;;;;;;;;;;;;;;8.67;66.67;100103.63;5102500;28;19916;-65
2021/04/26 03:11:56;;;;;;;;;;;;;;;8.92;66.35;100108.31;5101802;28;19908;-64
2021/04/26 03:14:24;;;;;;;;;;;;;;;8.81;66.58;100113.75;5101552;28;19916;-64
2021/04/26 03:16:49;;;;;;;;;;;;;;;8.71;66.87;100106.81;5102684;28;19912;-64
2021/04/26 03:19:16;;;;;;;;;;;;;;;8.79;66.10;100112.22;5102073;28;19938;-65
2021/04/26 03:21:42;;;;;;;;;;;;;;;8.69;66.78;100101.69;5101284;28;19912;-65
2021/04/26 03:24:08;;;;;;;;;;;;;;;8.85;66.54;100099.28;5102152;28;19934;-65
2021/04/26 03:26:33;;;;;;;;;;;;;;;9.02;65.59;100095.06;5102537;28;19916;-65
2021/04/26 03:28:59;;;;;;;;;;;;;;;9.16;64.89;100106.97;5100805;28;19912;-65
2021/04/26 03:31:26;;;;;;;;;;;;;;;9.04;65.78;100108.97;5100895;28;19912;-65
2021/04/26 03:33:52;;;;;;;;;;;;;;;9.18;64.68;100119.06;5102866;28;19922;-65
2021/04/26 03:36:17;;;;;;;;;;;;;;;8.90;66.09;100122.63;5102605;28;19990;-65
2021/04/26 03:38:43;;;;;;;;;;;;;;;8.89;66.00;100121.78;5100226;28;19954;-65
2021/04/26 03:41:08;;;;;;;;;;;;;;;8.94;65.96;100129.28;5103248;28;19969;-65
2021/04/26 03:43:34;;;;;;;;;;;;;;;9.19;64.76;100131.31;5105525;28;19982;-64
2021/04/26 03:45:59;;;;;;;;;;;;;;;9.19;64.52;100126.03;5105535;28;19920;-63
2021/04/26 03:48:25;;;;;;;;;;;;;;;9.05;64.30;100120.38;5103734;28;19995;-65
2021/04/26 03:50:50;;;;;;;;;;;;;;;8.85;64.22;100117.78;5105584;28;19919;-65
2021/04/26 03:53:15;;;;;;;;;;;;;;;8.81;64.84;100128.75;5105086;28;19916;-65
2021/04/26 03:55:40;;;;;;;;;;;;;;;8.76;65.19;100128.34;5105681;28;19920;-65
2021/04/26 03:58:07;;;;;;;;;;;;;;;8.86;64.79;100129.16;5104737;28;20225;-65
2021/04/26 04:00:33;;;;;;;;;;;;;;;8.81;65.24;100126.94;5105284;28;19912;-65
2021/04/26 04:02:58;;;;;;;;;;;;;;;8.81;65.57;100131.41;5105736;28;19916;-65
2021/04/26 04:05:23;;;;;;;;;;;;;;;8.94;65.07;100130.13;5104901;28;20623;-65
2021/04/26 04:07:49;;;;;;;;;;;;;;;8.91;65.37;100135.69;5103370;28;19981;-65
2021/04/26 04:10:16;;;;;;;;;;;;;;;9.07;65.27;100136.91;5105548;28;20213;-65
2021/04/26 04:12:41;;;;;;;;;;;;;;;9.09;65.12;100146.34;5105293;28;19937;-65
2021/04/26 04:15:07;;;;;;;;;;;;;;;9.22;65.76;100148.69;5105028;28;20101;-65
2021/04/26 04:17:32;;;;;;;;;;;;;;;9.25;66.08;100151.03;5104674;28;20201;-65
2021/04/26 04:19:58;;;;;;;;;;;;;;;9.28;66.40;100150.75;5104895;28;19918;-65
2021/04/26 04:22:23;;;;;;;;;;;;;;;9.22;66.39;100157.44;5104656;28;19946;-64
2021/04/26 04:24:48;;;;;;;;;;;;;;;9.48;65.95;100155.03;5105764;28;19961;-64
2021/04/26 04:27:14;;;;;;;;;;;;;;;9.45;65.59;100157.13;5104684;28;20455;-64
2021/04/26 04:29:39;;;;;;;;;;;;;;;9.38;65.50;100159.50;5104069;28;19916;-65
2021/04/26 04:32:05;;;;;;;;;;;;;;;9.48;65.76;100159.47;5104996;28;19912;-65
2021/04/26 04:34:30;;;;;;;;;;;;;;;9.73;64.81;100152.69;5105102;28;19943;-65
2021/04/26 04:36:55;;;;;;;;;;;;;;;9.67;64.87;100148.81;5104829;28;20101;-65
2021/04/26 04:39:21;;;;;;;;;;;;;;;9.75;64.57;100154.22;5104317;28;19966;-65
2021/04/26 04:41:46;;;;;;;;;;;;;;;9.82;64.09;100159.75;5122362;27;19930;-65
2021/04/26 04:44:11;;;;;;;;;;;;;;;9.83;63.76;100151.66;5107341;28;19922;-65
2021/04/26 04:46:36;;;;;;;;;;;;;;;10.08;63.84;100146.66;5106552;28;20146;-65
2021/04/26 04:49:02;;;;;;;;;;;;;;;10.00;63.87;100165.91;5119875;28;19949;-65
2021/04/26 04:51:27;;;;;;;;;;;;;;;10.13;63.78;100160.25;5110402;28;20209;-66
2021/04/26 04:53:55;;;;;;;;;;;;;;;10.17;64.18;100154.53;5103216;28;19962;-65
2021/04/26 04:56:20;;;;;;;;;;;;;;;10.47;62.89;100153.38;5104421;28;20202;-65
2021/04/26 04:58:46;;;;;;;;;;;;;;;10.60;62.41;100152.19;5102842;28;19934;-65
2021/04/26 05:01:11;;;;;;;;;;;;;;;10.45;62.30;100118.28;5103188;28;19950;-65
2021/04/26 05:03:37;;;;;;;;;;;;;;;10.98;61.24;100148.34;5104462;28;20246;-65
2021/04/26 05:06:02;;;;;;;;;;;;;;;11.31;60.56;100160.00;5104055;28;19912;-64
2021/04/26 05:08:27;;;;;;;;;;;;;;;11.48;59.51;100157.31;5103001;28;20153;-65
2021/04/26 05:10:52;;;;;;;;;;;;;;;11.79;58.97;100173.56;5104023;28;19924;-65
2021/04/26 05:13:18;;;;;;;;;;;;;;;12.02;58.64;100168.50;5103191;28;19916;-65
2021/04/26 05:15:43;;;;;;;;;;;;;;;12.28;57.86;100156.97;5103998;28;20111;-65
2021/04/26 05:18:09;;;;;;;;;;;;;;;12.15;57.76;100152.94;5103065;28;20078;-65
2021/04/26 05:20:35;;;;;;;;;;;;;;;12.67;56.24;100146.56;5103777;28;19931;-65
2021/04/26 05:23:00;;;;;;;;;;;;;;;13.22;55.18;100152.03;5103079;28;20311;-65
2021/04/26 05:25:26;;;;;;;;;;;;;;;13.69;53.80;100159.25;5102198;28;19912;-66
2021/04/26 05:27:51;;;;;;;;;;;;;;;14.09;52.79;100165.41;5103754;28;19954;-65
2021/04/26 05:30:16;;;;;;;;;;;;;;;14.37;51.69;100167.41;5102255;28;19987;-65
2021/04/26 05:32:42;;;;;;;;;;;;;;;14.66;51.09;100172.09;5103671;28;19943;-65
2021/04/26 05:35:07;;;;;;;;;;;;;;;15.04;49.94;100171.28;5103091;28;19928;-65
2021/04/26 05:37:33;;;;;;;;;;;;;;;15.27;49.75;100180.91;5102778;28;19911;-66
2021/04/26 05:39:58;;;;;;;;;;;;;;;15.44;49.23;100180.75;5104295;28;19912;-65
2021/04/26 05:42:23;;;;;;;;;;;;;;;15.73;47.89;100182.66;5102070;28;19912;-65
2021/04/26 05:44:49;;;;;;;;;;;;;;;15.95;47.87;100182.53;5104024;28;19915;-64
2021/04/26 05:47:14;;;;;;;;;;;;;;;16.23;47.42;100189.84;5101403;28;20070;-64
2021/04/26 05:49:39;;;;;;;;;;;;;;;15.92;47.35;100180.25;5102782;28;19912;-66
2021/04/26 05:52:04;;;;;;;;;;;;;;;16.06;47.47;100183.06;5103312;28;19908;-66
2021/04/26 05:54:30;;;;;;;;;;;;;;;15.95;48.17;100177.19;5103107;28;20134;-65
2021/04/26 05:56:55;;;;;;;;;;;;;;;16.24;46.51;100167.47;5101183;28;20260;-66
2021/04/26 05:59:21;;;;;;;;;;;;;;;16.54;46.84;100174.38;5103321;28;19955;-65
2021/04/26 06:01:46;;;;;;;;;;;;;;;16.50;46.63;100169.59;5102523;28;19920;-65
2021/04/26 06:04:12;;;;;;;;;;;;;;;16.76;46.04;100124.47;5102206;28;19920;-65
2021/04/26 06:06:37;;;;;;;;;;;;;;;17.02;45.70;100153.25;5103211;28;19919;-65
2021/04/26 06:09:02;;;;;;;;;;;;;;;17.24;45.02;100160.22;5101935;28;19923;-65
2021/04/26 06:11:28;;;;;;;;;;;;;;;17.15;45.12;100156.03;5101755;28;19958;-65
2021/04/26 06:13:53;;;;;;;;;;;;;;;17.51;44.24;100161.22;5110802;28;19922;-65
2021/04/26 06:16:18;;;;;;;;;;;;;;;17.73;44.38;100161.19;5114632;28;19918;-66
2021/04/26 06:18:43;;;;;;;;;;;;;;;17.97;44.04;100157.19;5112344;28;19923;-65
2021/04/26 06:21:09;;;;;;;;;;;;;;;17.95;43.59;100159.25;5115009;28;20109;-65
2021/04/26 06:23:34;;;;;;;;;;;;;;;18.30;43.11;100159.97;5113108;28;19916;-64
2021/04/26 06:26:00;;;;;;;;;;;;;;;18.47;42.06;100162.09;5111992;27;19919;-65
2021/04/26 06:28:25;;;;;;;;;;;;;;;18.72;41.68;100154.31;5113302;28;20057;-65
2021/04/26 06:30:51;;;;;;;;;;;;;;;18.93;40.94;100157.88;5120468;28;19918;-66
2021/04/26 06:33:16;;;;;;;;;;;;;;;18.87;40.61;100164.06;5122056;28;19915;-65
2021/04/26 06:35:45;;;;;;;;;;;;;;;18.73;41.31;100165.91;5114394;28;19922;-65
2021/04/26 06:38:11;;;;;;;;;;;;;;;18.96;41.07;100165.50;5114327;28;19930;-66
2021/04/26 06:40:37;;;;;;;;;;;;;;;19.13;40.96;100158.69;5116184;28;19933;-66
2021/04/26 06:43:03;;;;;;;;;;;;;;;19.34;39.90;100155.78;5113821;28;19915;-66
2021/04/26 06:45:28;;;;;;;;;;;;;;;19.69;39.02;100150.16;5112715;27;19912;-65
2021/04/26 06:47:54;;;;;;;;;;;;;;;19.80;39.07;100159.44;5110058;28;19922;-65
2021/04/26 06:50:20;;;;;;;;;;;;;;;19.61;39.60;100153.88;5113631;28;19923;-66
2021/04/26 06:52:46;;;;;;;;;;;;;;;19.76;38.85;100154.47;5112610;28;19979;-66
2021/04/26 06:55:11;;;;;;;;;;;;;;;19.42;39.22;100149.34;5113059;28;19912;-65
2021/04/26 06:57:37;;;;;;;;;;;;;;;19.45;39.35;100116.72;5116520;28;19912;-66
2021/04/26 07:00:03;;;;;;;;;;;;;;;20.01;39.06;100143.84;5121303;28;20257;-66
2021/04/26 07:02:29;;;;;;;;;;;;;;;19.73;39.52;100144.13;5119137;28;19968;-66
2021/04/26 07:04:54;;;;;;;;;;;;;;;19.83;39.41;100143.72;5122826;28;19965;-64
2021/04/26 07:07:19;;;;;;;;;;;;;;;20.28;38.67;100141.84;5113547;28;19911;-64
2021/04/26 07:09:45;;;;;;;;;;;;;;;20.69;37.87;100129.81;5112181;28;19924;-66
2021/04/26 07:12:10;;;;;;;;;;;;;;;21.23;36.13;100139.97;5111899;28;19911;-66
2021/04/26 07:14:35;;;;;;;;;;;;;;;21.30;37.70;100129.97;5113997;28;20000;-66
2021/04/26 07:17:01;;;;;;;;;;;;;;;21.22;35.71;100132.09;5112648;28;19983;-66
2021/04/26 07:19:26;;;;;;;;;;;;;;;20.94;36.62;100132.53;5111045;28;19986;-65
2021/04/26 07:21:51;;;;;;;;;;;;;;;19.95;38.11;100123.19;5111678;28;20281;-65
2021/04/26 07:24:17;;;;;;;;;;;;;;;20.02;39.04;100126.69;5115053;28;19920;-65
2021/04/26 07:26:42;;;;;;;;;;;;;;;20.48;37.97;100114.88;5111547;28;19956;-66
2021/04/26 07:29:07;;;;;;;;;;;;;;;20.83;36.93;100112.56;5110130;28;19955;-66
2021/04/26 07:31:32;;;;;;;;;;;;;;;20.80;37.24;100112.97;5113658;28;19920;-66
2021/04/26 07:33:58;;;;;;;;;;;;;;;19.91;38.46;100121.97;5113568;28;19952;-65
2021/04/26 07:36:23;;;;;;;;;;;;;;;19.43;39.34;100113.41;5112355;28;20228;-66
2021/04/26 07:38:48;;;;;;;;;;;;;;;19.49;39.67;100107.19;5113006;28;19923;-65
2021/04/26 07:41:14;;;;;;;;;;;;;;;19.39;39.16;100106.81;5110394;28;19991;-65
2021/04/26 07:43:39;;;;;;;;;;;;;;;19.89;38.51;100104.41;5112439;28;19990;-66
2021/04/26 07:46:04;;;;;;;;;;;;;;;20.62;37.16;100111.03;5117374;28;19911;-65
2021/04/26 07:48:30;;;;;;;;;;;;;;;21.12;36.74;100104.84;5112275;28;19915;-65
2021/04/26 07:50:55;;;;;;;;;;;;;;;20.39;37.63;100117.00;5112467;28;19951;-65
2021/04/26 07:53:20;;;;;;;;;;;;;;;19.91;38.44;100119.28;5117500;28;20245;-65
2021/04/26 07:55:45;;;;;;;;;;;;;;;19.71;38.65;100116.66;5120782;28;19916;-66
2021/04/26 07:58:11;;;;;;;;;;;;;;;19.19;39.64;100111.41;5115396;28;19991;-66
2021/04/26 08:00:36;;;;;;;;;;;;;;;18.69;40.53;100106.44;5117264;28;19912;-65
2021/04/26 08:03:01;;;;;;;;;;;;;;;19.58;39.24;100099.75;5120618;28;19916;-66
2021/04/26 08:05:28;;;;;;;;;;;;;;;19.88;38.92;100089.34;5115056;28;19918;-66
2021/04/26 08:07:54;;;;;;;;;;;;;;;19.17;39.54;100082.06;5114378;28;19978;-65
2021/04/26 08:10:19;;;;;;;;;;;;;;;19.51;38.92;100088.19;5120813;28;19912;-66
2021/04/26 08:12:45;;;;;;;;;;;;;;;19.94;37.57;100097.38;5109752;28;19934;-65
2021/04/26 08:15:11;;;;;;;;;;;;;;;20.58;36.85;100087.47;5111635;28;19911;-66
2021/04/26 08:17:36;;;;;;;;;;;;;;;20.46;36.68;100087.34;5113484;28;20354;-66
2021/04/26 08:20:03;;;;;;;;;;;;;;;20.79;36.29;100086.28;5109707;28;19919;-66
2021/04/26 08:22:28;;;;;;;;;;;;;;;21.24;36.52;100085.06;5109754;28;19912;-66
2021/04/26 08:24:54;;;;;;;;;;;;;;;21.69;34.77;100087.47;5112678;28;19912;-66
2021/04/26 08:27:19;;;;;;;;;;;;;;;22.05;34.94;100093.91;5114103;28;19927;-65
2021/04/26 08:29:44;;;;;;;;;;;;;;;22.44;34.32;100097.91;5120017;28;19912;-65
2021/04/26 08:32:10;;;;;;;;;;;;;;;22.81;33.98;100099.41;5124701;28;19912;-66
2021/04/26 08:34:35;;;;;;;;;;;;;;;22.98;33.12;100093.34;5116459;28;19922;-66
2021/04/26 08:37:01;;;;;;;;;;;;;;;23.02;32.14;100089.09;5118106;28;20201;-66
2021/04/26 08:39:26;;;;;;;;;;;;;;;22.22;34.41;100081.41;5117319;28;20537;-66
2021/04/26 08:41:52;;;;;;;;;;;;;;;22.28;34.44;100075.09;5125244;28;19911;-66
2021/04/26 08:44:17;;;;;;;;;;;;;;;22.44;34.19;100074.44;5123981;28;19959;-66
2021/04/26 08:46:43;;;;;;;;;;;;;;;22.45;34.13;100080.66;5124199;27;19911;-66
2021/04/26 08:49:10;;;;;;;;;;;;;;;22.50;33.38;100078.09;5119740;28;19931;-66
2021/04/26 08:51:36;;;;;;;;;;;;;;;22.34;34.93;100066.09;5116647;27;19996;-66
2021/04/26 08:54:02;;;;;;;;;;;;;;;21.67;36.61;100068.00;5114909;28;19915;-66
2021/04/26 08:56:27;;;;;;;;;;;;;;;21.93;35.02;100062.28;5114711;28;20255;-66
2021/04/26 08:58:52;;;;;;;;;;;;;;;22.48;33.58;100059.44;5117048;28;19931;-66
2021/04/26 09:01:17;;;;;;;;;;;;;;;22.62;32.84;100060.03;5113628;28;19965;-66
2021/04/26 09:03:45;;;;;;;;;;;;;;;22.85;33.07;100054.69;5116217;28;20330;-66
2021/04/26 09:06:10;;;;;;;;;;;;;;;23.05;32.87;100040.84;5115062;28;19912;-65
2021/04/26 09:08:36;;;;;;;;;;;;;;;23.13;32.96;100047.75;5116521;28;19924;-65
2021/04/26 09:11:03;;;;;;;;;;;;;;;23.17;32.57;100040.84;5122837;28;20057;-66
2021/04/26 09:13:28;;;;;;;;;;;;;;;23.27;32.27;100040.22;5120104;28;19931;-66
2021/04/26 09:16:08;;;;;;;;;;;;;;;23.08;32.09;100043.06;5115148;28;19960;-66
2021/04/26 09:18:54;;;;;;;;;;;;;;;22.69;32.69;100036.44;5115294;27;20001;-66
2021/04/26 09:21:25;;;;;;;15.48;7.03;;;;;;;22.80;34.29;100037.53;5113012;28;24584;-72
2021/04/26 09:24:11;;;;;;;13.23;5.80;;;;;;;22.77;34.41;100036.09;5117173;27;20040;-72
2021/04/26 09:26:36;;;;;;;9.57;5.90;;;;;;;22.85;33.47;100037.66;5113424;28;20040;-72
2021/04/26 09:29:16;;;;;;;14.57;6.05;;;;;;;23.14;32.81;100033.19;5114244;27;20023;-72
2021/04/26 09:31:42;;;;;;;11.02;5.43;;;;;;;23.21;32.68;100032.00;5115043;28;20024;-72
2021/04/26 09:34:31;;;;;;;14.68;5.68;;;;;;;23.15;33.13;100027.56;5116626;28;20032;-72
2021/04/26 09:37:04;;;;;;;11.35;5.72;;;;;;;22.95;32.17;100024.41;5113379;28;20046;-72
2021/04/26 09:39:30;;;;;;;9.32;6.05;;;;;;;22.38;33.84;100020.56;5113495;28;20024;-72
2021/04/26 09:41:56;;;;;;;14.40;6.40;;;;;;;21.84;35.27;100017.78;5114356;28;20051;-72
2021/04/26 09:44:22;;;;;;;14.18;5.97;;;;;;;21.70;35.72;100015.50;5113891;27;20325;-72
2021/04/26 09:46:50;;;;;;;10.30;6.25;;;;;;;21.89;34.91;100011.75;5114251;28;20043;-76
2021/04/26 09:49:25;;;;;;;12.10;6.20;;;;;;;21.83;36.00;100016.16;5115155;28;20103;-76
2021/04/26 09:52:12;;;;;;;11.82;6.00;;;;;;;21.90;36.62;100018.78;5115653;28;20023;-72
2021/04/26 09:54:43;;;;;;;10.77;5.45;;;;;;;21.86;35.86;100010.34;5113475;28;20072;-72
2021/04/26 09:57:09;;;;;;;9.82;5.50;;;;;;;21.98;36.60;100013.06;5115592;28;20032;-71
2021/04/26 09:59:35;;;;;;;13.85;6.53;;;;;;;21.96;36.08;100007.09;5120233;27;20089;-72
2021/04/26 10:02:02;;;;;;;14.13;6.53;;;;;;;21.64;37.05;100003.78;5122201;28;20023;-72
2021/04/26 10:04:28;;;;;;;11.95;5.95;;;;;;;21.78;35.93;100010.63;5112645;28;20023;-72
2021/04/26 10:06:53;;;;;;;16.55;6.30;;;;;;;21.94;36.33;99999.22;5115745;28;20105;-72
2021/04/26 10:09:20;;;;;;;11.88;6.15;;;;;;;22.10;36.04;100011.25;5117435;28;20260;-72
2021/04/26 10:11:45;;;;;;;11.85;6.00;;;;;;;21.91;35.41;100001.56;5112836;28;20027;-72
2021/04/26 10:14:15;;;;;;;14.52;6.57;;;;;;;22.09;35.49;99993.44;5113312;28;20040;-72
2021/04/26 10:16:44;;;;;;;13.93;6.63;;;;;;;22.21;35.13;99996.16;5113138;28;20105;-72
2021/04/26 10:19:14;;;;;;;13.95;6.70;;;;;;;22.13;35.53;99985.69;5116694;28;20278;-72
2021/04/26 10:21:41;;;;;;;17.30;5.80;;;;;;;22.15;35.71;99994.38;5121525;28;20028;-72
2021/04/26 10:24:18;;;;;;;8.85;5.28;;;;;;;22.19;36.61;99987.47;5122127;28;20047;-72
2021/04/26 10:26:49;;;;;;;14.25;6.20;;;;;;;22.24;34.80;99988.41;5120875;28;20028;-76
2021/04/26 10:29:16;;;;;;;14.52;6.20;;;;;;;21.87;35.60;99979.63;5121762;28;20081;-76
2021/04/26 10:31:57;;;;;;;17.13;6.82;;;;;;;21.62;37.36;99987.00;5119003;28;20270;-71
2021/04/26 10:34:23;;;;;;;13.40;6.35;;;;;;;21.67;36.76;99979.88;5120924;28;20089;-72
2021/04/26 10:36:53;;;;;;;18.33;6.30;;;;;;;21.65;36.99;99978.47;5120235;28;20035;-72
2021/04/26 10:39:20;;;;;;;12.30;6.30;;;;;;;21.65;36.53;99978.47;5121547;28;20043;-72
2021/04/26 10:41:46;;;;;;;15.63;6.03;;;;;;;21.71;35.28;99980.25;5118758;28;20325;-72
2021/04/26 10:44:13;;;;;;;16.65;5.85;;;;;;;21.91;34.08;99969.22;5120627;28;20035;-72
2021/04/26 10:46:38;;;;;;;10.43;5.80;;;;;;;21.97;31.82;99963.72;5120311;28;20027;-72
2021/04/26 10:49:05;;;;;;;12.18;5.47;;;;;;;22.13;33.60;99964.94;5122398;28;20041;-72
2021/04/26 10:51:31;;;;;;;17.10;5.97;;;;;;;22.17;34.95;99958.03;5121063;28;20111;-72
2021/04/26 10:53:56;;;;;;;12.57;5.13;;;;;;;22.30;33.37;99955.13;5121208;28;20320;-72
2021/04/26 10:56:27;;;;;;;14.73;4.93;;;;;;;22.33;33.02;99951.13;5120453;28;20051;-72
2021/04/26 10:59:18;;;;;;;12.57;5.35;;;;;;;22.33;32.72;99956.53;5120727;28;20039;-72
2021/04/26 11:01:51;;;;;;;14.95;5.25;;;;;;;22.23;32.39;99956.28;5119478;28;20051;-72
2021/04/26 11:04:17;;;;;;;16.63;5.15;;;;;;;22.22;33.17;99941.97;5111313;28;20039;-72
2021/04/26 11:06:59;;;;;;;10.27;5.35;;;;;;;22.36;33.48;99939.88;5111581;28;20099;-76
2021/04/26 11:09:38;;;;;;;10.98;5.03;;;;;;;22.51;31.58;99948.31;5114614;28;20085;-76
2021/04/26 11:12:30;;;;;;;11.35;4.70;;;;;;;22.63;29.24;99943.75;5111815;28;20207;-72
2021/04/26 11:15:16;;;;;;;8.55;5.20;;;;;;;22.66;29.18;99941.63;5109764;28;20036;-72
2021/04/26 11:17:43;;;;;;;8.52;5.18;;;;;;;22.55;30.09;99937.88;5108935;28;20229;-72
2021/04/26 11:20:11;;;;;;;10.90;4.75;;;;;;;22.54;28.18;99928.97;5111889;28;20072;-72
2021/04/26 11:22:37;;;;;;;8.88;4.80;;;;;;;22.65;27.05;99932.72;5110162;28;20089;-72
2021/04/26 11:25:04;;;;;;;10.07;4.88;;;;;;;22.81;26.15;99925.78;5110878;28;20381;-72
2021/04/26 11:27:31;;;;;;;11.70;4.63;;;;;;;22.74;26.32;99914.28;5109956;28;20027;-72
2021/04/26 11:29:56;;;;;;;13.45;5.25;;;;;;;22.81;26.20;99907.72;5113771;28;20034;-72
2021/04/26 11:32:28;;;;;;;12.13;4.60;;;;;;;22.90;25.75;99892.00;5110079;28;20258;-72
2021/04/26 11:34:54;;;;;;;15.55;4.70;;;;;;;22.66;26.59;99895.75;5115452;28;20233;-72
2021/04/26 11:37:28;;;;;;;12.20;5.55;;;;;;;22.54;26.56;99884.97;5120817;28;20032;-72
2021/04/26 11:39:55;;;;;;;10.68;5.00;;;;;;;22.49;26.53;99896.47;5115431;28;20216;-72
2021/04/26 11:42:27;;;;;;;10.18;4.40;;;;;;;22.40;27.21;99888.97;5112109;28;20036;-71
2021/04/26 11:44:53;;;;;;;8.45;4.05;;;;;;;22.25;25.75;99879.47;5110320;28;20028;-72
2021/04/26 11:47:21;;;;;;;14.02;3.95;;;;;;;22.38;26.32;99872.19;5113389;28;20023;-76
2021/04/26 11:49:48;;;;;;;9.50;4.50;;;;;;;22.52;26.29;99881.69;5109550;28;20028;-76
2021/04/26 11:52:19;;;;;;;7.25;3.80;;;;;;;22.77;25.42;99876.81;5113114;28;20045;-72
2021/04/26 11:54:47;;;;;;;7.15;4.10;;;;;;;22.52;26.23;99870.88;5113833;28;20097;-72
2021/04/26 11:57:16;;;;;;;9.20;4.10;;;;;;;22.51;24.94;99866.53;5110854;28;20325;-72
2021/04/26 11:59:51;;;;;;;8.15;4.22;;;;;;;22.31;24.72;99872.31;5110247;28;20149;-72
2021/04/26 12:02:38;;;;;;;6.32;3.97;;;;;;;22.41;23.70;99869.03;5114498;28;20055;-72
2021/04/26 12:05:08;;;;;;;9.38;3.85;;;;;;;22.40;23.48;99860.09;5116068;28;20054;-72
2021/04/26 12:07:34;;;;;;;9.13;3.83;;;;;;;22.27;24.11;99861.19;5113783;28;20031;-72
2021/04/26 12:10:08;;;;;;;11.68;3.90;;;;;;;22.13;23.52;99861.66;5115742;28;20032;-72
2021/04/26 12:12:34;;;;;;;13.77;4.38;;;;;;;22.04;24.76;99844.19;5119255;28;20195;-72
2021/04/26 12:15:05;;;;;;;7.70;3.75;;;;;;;22.05;23.39;99846.63;5114834;27;20089;-72
2021/04/26 12:17:32;;;;;;;5.78;3.40;;;;;;;21.87;23.87;99836.75;5115366;28;20064;-71
2021/04/26 12:19:59;;;;;;;9.25;3.60;;;;;;;21.91;25.60;99827.16;5114308;28;20019;-72